createdAt,value
2018-09-15T00:00:01.921Z,13.78
2018-09-15T00:05:01.286Z,13.71
2018-09-15T00:10:01.720Z,13.68
2018-09-15T00:15:02.065Z,13.66
2018-09-15T00:20:01.451Z,13.75
2018-09-15T00:25:01.800Z,13.78
2018-09-15T00:30:02.139Z,13.83
2018-09-15T00:35:01.620Z,13.91
2018-09-15T00:40:02.051Z,14.01
2018-09-15T00:45:01.473Z,14.09
2018-09-15T00:50:01.929Z,14.14
2018-09-15T00:55:01.373Z,14.17
2018-09-15T01:00:01.717Z,14.15
2018-09-15T01:05:01.185Z,14.18
2018-09-15T01:10:01.563Z,14.19
2018-09-15T01:15:01.883Z,14.23
2018-09-15T01:20:01.505Z,14.19
2018-09-15T01:25:01.155Z,14.21
2018-09-15T01:30:01.548Z,14.14
2018-09-15T01:35:02.002Z,14.13
2018-09-15T01:40:01.495Z,14.14
2018-09-15T01:45:01.966Z,14.17
2018-09-15T01:50:01.465Z,14.17
2018-09-15T01:55:01.903Z,14.18
2018-09-15T02:00:01.131Z,14.22
2018-09-15T02:05:01.535Z,14.19
2018-09-15T02:10:01.973Z,14.18
2018-09-15T02:15:01.208Z,14.1
2018-09-15T02:20:01.523Z,14.04
2018-09-15T02:25:02.037Z,13.89
2018-09-15T02:30:01.476Z,13.76
2018-09-15T02:35:01.979Z,13.65
2018-09-15T02:40:01.324Z,13.49
2018-09-15T02:45:01.838Z,13.29
2018-09-15T02:50:01.130Z,13.07
2018-09-15T02:55:01.483Z,12.87
2018-09-15T03:00:01.852Z,12.64
2018-09-15T03:05:01.219Z,12.43
2018-09-15T03:10:01.547Z,12.26
2018-09-15T03:15:01.885Z,12.11
2018-09-15T03:20:01.188Z,11.93
2018-09-15T03:25:01.511Z,11.77
2018-09-15T03:30:01.791Z,11.63
2018-09-15T03:35:01.134Z,11.54
2018-09-15T03:40:01.430Z,11.42
2018-09-15T03:45:01.819Z,11.32
2018-09-15T03:50:01.173Z,11.2
2018-09-15T03:55:01.513Z,11.15
2018-09-15T04:00:01.905Z,11.08
2018-09-15T04:05:01.599Z,10.98
2018-09-15T04:10:01.962Z,10.89
2018-09-15T04:15:01.258Z,10.81
2018-09-15T04:20:01.627Z,10.74
2018-09-15T04:25:02.067Z,10.67
2018-09-15T04:30:01.530Z,10.6
2018-09-15T04:35:02.016Z,10.55
2018-09-15T04:40:01.877Z,10.48
2018-09-15T04:45:01.238Z,10.42
2018-09-15T04:50:01.585Z,10.4
2018-09-15T04:55:01.984Z,10.4
2018-09-15T05:00:01.247Z,10.42
2018-09-15T05:05:01.572Z,10.42
2018-09-15T05:10:01.964Z,10.4
2018-09-15T05:15:01.262Z,10.43
2018-09-15T05:20:01.617Z,10.4
2018-09-15T05:25:01.954Z,10.4
2018-09-15T05:30:01.308Z,10.41
2018-09-15T05:35:01.761Z,10.43
2018-09-15T05:40:01.382Z,10.45
2018-09-15T05:45:02.128Z,10.48
2018-09-15T05:50:01.479Z,10.48
2018-09-15T05:55:01.780Z,10.53
2018-09-15T06:00:01.128Z,10.55
2018-09-15T06:05:01.580Z,10.65
2018-09-15T06:10:01.954Z,10.9
2018-09-15T06:15:01.254Z,11.38
2018-09-15T06:20:01.611Z,11.74
2018-09-15T06:25:01.993Z,12.07
2018-09-15T06:30:01.293Z,12.36
2018-09-15T06:35:01.719Z,12.63
2018-09-15T06:40:02.115Z,12.76
2018-09-15T06:45:01.413Z,13.01
2018-09-15T06:50:01.835Z,13.37
2018-09-15T06:55:01.206Z,13.66
2018-09-15T07:00:01.592Z,13.75
2018-09-15T07:05:02.001Z,13.73
2018-09-15T07:10:01.449Z,13.69
2018-09-15T07:15:01.761Z,13.93
2018-09-15T07:20:02.231Z,14.11
2018-09-15T07:25:01.845Z,14.38
2018-09-15T07:30:01.165Z,14.83
2018-09-15T07:35:01.560Z,15.06
2018-09-15T07:40:01.998Z,15.13
2018-09-15T07:45:01.286Z,15.07
2018-09-15T07:50:01.611Z,15
2018-09-15T07:55:01.992Z,15.01
2018-09-15T08:00:01.344Z,15.04
2018-09-15T08:05:01.783Z,15.63
2018-09-15T08:10:01.159Z,16.05
2018-09-15T08:15:01.504Z,16.36
2018-09-15T08:20:01.855Z,16.65
2018-09-15T08:25:01.188Z,16.56
2018-09-15T08:30:01.473Z,16.73
2018-09-15T08:35:01.928Z,17.14
2018-09-15T08:40:01.349Z,16.88
2018-09-15T08:45:01.666Z,16.72
2018-09-15T08:50:02.057Z,16.72
2018-09-15T08:55:01.557Z,16.64
2018-09-15T09:00:01.882Z,16.65
2018-09-15T09:05:01.240Z,16.57
2018-09-15T09:10:01.684Z,16.49
2018-09-15T09:15:01.981Z,16.43
2018-09-15T09:20:01.434Z,16.4
2018-09-15T09:25:01.369Z,16.41
2018-09-15T09:30:02.031Z,16.57
2018-09-15T09:35:01.379Z,17.09
2018-09-15T09:40:01.764Z,18.1
2018-09-15T09:45:01.102Z,17.75
2018-09-15T09:50:01.431Z,17.38
2018-09-15T09:55:01.848Z,17.43
2018-09-15T10:00:01.198Z,17.28
2018-09-15T10:05:01.594Z,17.21
2018-09-15T10:10:02.044Z,17.91
2018-09-15T10:15:01.334Z,19.18
2018-09-15T10:20:01.754Z,19.37
2018-09-15T10:25:01.192Z,18.72
2018-09-15T10:30:01.480Z,19.07
2018-09-15T10:35:01.890Z,19.45
2018-09-15T10:40:01.253Z,19.16
2018-09-15T10:45:01.494Z,19.72
2018-09-15T10:50:02.009Z,19.53
2018-09-15T10:55:01.482Z,19.52
2018-09-15T11:00:01.741Z,19.53
2018-09-15T11:05:02.253Z,19.23
2018-09-15T11:10:01.748Z,18.88
2018-09-15T11:15:02.078Z,19.03
2018-09-15T11:20:01.456Z,19.62
2018-09-15T11:25:01.898Z,19.68
2018-09-15T11:30:01.328Z,19.76
2018-09-15T11:35:01.784Z,19.77
2018-09-15T11:40:01.181Z,20
2018-09-15T11:45:01.453Z,20.24
2018-09-15T11:50:01.848Z,20.17
2018-09-15T11:55:01.277Z,19.26
2018-09-15T12:00:01.721Z,18.98
2018-09-15T12:05:01.329Z,19.14
2018-09-15T12:10:01.688Z,19.44
2018-09-15T12:15:02.023Z,19.81
2018-09-15T12:20:01.375Z,19.77
2018-09-15T12:25:01.753Z,19.66
2018-09-15T12:30:02.077Z,19.47
2018-09-15T12:35:01.453Z,19.41
2018-09-15T12:40:01.877Z,19.45
2018-09-15T12:45:01.397Z,19.24
2018-09-15T12:50:01.813Z,18.95
2018-09-15T12:55:01.147Z,18.85
2018-09-15T13:00:01.410Z,19.06
2018-09-15T13:05:01.837Z,19.52
2018-09-15T13:10:01.227Z,20.1
2018-09-15T13:15:01.515Z,19.84
2018-09-15T13:20:01.940Z,19.4
2018-09-15T13:25:02.123Z,19.35
2018-09-15T13:30:01.470Z,19.33
2018-09-15T13:35:02.115Z,19.53
2018-09-15T13:40:01.524Z,19.45
2018-09-15T13:45:01.815Z,19.46
2018-09-15T13:50:01.196Z,19.65
2018-09-15T13:55:01.567Z,19.74
2018-09-15T14:00:01.910Z,19.68
2018-09-15T14:05:01.369Z,19.52
2018-09-15T14:10:07.045Z,19.5
2018-09-15T14:15:01.695Z,19.47
2018-09-15T14:20:02.061Z,19.33
2018-09-15T14:25:01.476Z,19.27
2018-09-15T14:30:01.864Z,19.18
2018-09-15T14:35:01.256Z,19.17
2018-09-15T14:40:02.112Z,19.16
2018-09-15T14:45:01.394Z,19.18
2018-09-15T14:50:01.840Z,19.17
2018-09-15T14:55:01.291Z,19.11
2018-09-15T15:00:01.760Z,19.03
2018-09-15T15:05:01.112Z,19.03
2018-09-15T15:10:01.414Z,18.96
2018-09-15T15:15:01.713Z,18.76
2018-09-15T15:20:02.058Z,18.73
2018-09-15T15:25:01.488Z,18.72
2018-09-15T15:30:01.905Z,18.7
2018-09-15T15:35:01.240Z,18.62
2018-09-15T15:40:01.626Z,18.53
2018-09-15T15:45:01.920Z,18.47
2018-09-15T15:50:01.265Z,18.43
2018-09-15T15:55:01.596Z,18.44
2018-09-15T16:00:01.861Z,18.41
2018-09-15T16:05:01.185Z,18.39
2018-09-15T16:10:01.469Z,18.38
2018-09-15T16:15:01.843Z,18.33
2018-09-15T16:20:01.105Z,18.34
2018-09-15T16:25:01.502Z,18.28
2018-09-15T16:30:01.850Z,18.24
2018-09-15T16:35:01.201Z,18.23
2018-09-15T16:40:01.517Z,18.12
2018-09-15T16:45:01.830Z,18.04
2018-09-15T16:50:02.166Z,17.87
2018-09-15T16:55:01.617Z,17.7
2018-09-15T17:00:01.911Z,17.44
2018-09-15T17:05:01.283Z,17.22
2018-09-15T17:10:01.624Z,17.04
2018-09-15T17:15:02.063Z,16.8
2018-09-15T17:20:01.379Z,16.57
2018-09-15T17:25:01.753Z,16.36
2018-09-15T17:30:02.071Z,16.05
2018-09-15T17:35:01.424Z,15.77
2018-09-15T17:40:01.855Z,15.59
2018-09-15T17:45:01.151Z,15.43
2018-09-15T17:50:01.507Z,15.16
2018-09-15T17:55:01.956Z,15.03
2018-09-15T18:00:01.478Z,14.89
2018-09-15T18:05:01.870Z,14.85
2018-09-15T18:10:01.315Z,14.8
2018-09-15T18:15:02.161Z,14.6
2018-09-15T18:20:01.752Z,14.36
2018-09-15T18:25:01.180Z,14.32
2018-09-15T18:30:01.465Z,14.48
2018-09-15T18:35:01.905Z,14.33
2018-09-15T18:40:01.317Z,14.32
2018-09-15T18:45:01.591Z,14.26
2018-09-15T18:50:01.943Z,14.15
2018-09-15T18:55:01.375Z,14.05
2018-09-15T19:00:01.728Z,14.03
2018-09-15T19:05:02.078Z,13.92
2018-09-15T19:10:01.476Z,13.78
2018-09-15T19:15:01.749Z,13.66
2018-09-15T19:20:02.178Z,13.6
2018-09-15T19:25:01.623Z,13.54
2018-09-15T19:30:01.995Z,13.65
2018-09-15T19:35:01.268Z,13.79
2018-09-15T19:40:01.614Z,13.78
2018-09-15T19:45:01.932Z,13.78
2018-09-15T19:50:01.299Z,13.76
2018-09-15T19:55:01.641Z,13.83
2018-09-15T20:00:01.952Z,13.78
2018-09-15T20:05:01.390Z,13.7
2018-09-15T20:10:01.798Z,13.58
2018-09-15T20:15:01.459Z,13.56
2018-09-15T20:20:01.960Z,13.52
2018-09-15T20:25:01.388Z,13.55
2018-09-15T20:30:01.675Z,13.52
2018-09-15T20:35:02.075Z,13.51
2018-09-15T20:40:01.515Z,13.35
2018-09-15T20:45:01.832Z,13.33
2018-09-15T20:50:01.127Z,13.29
2018-09-15T20:55:01.450Z,13.22
2018-09-15T21:00:01.811Z,13.24
2018-09-15T21:05:01.166Z,13.35
2018-09-15T21:10:01.483Z,13.37
2018-09-15T21:15:01.818Z,13.35
2018-09-15T21:20:01.155Z,13.33
2018-09-15T21:25:01.491Z,13.29
2018-09-15T21:30:01.821Z,13.19
2018-09-15T21:35:01.229Z,13.12
2018-09-15T21:40:01.842Z,13.08
2018-09-15T21:45:01.142Z,13.03
2018-09-15T21:50:01.491Z,12.99
2018-09-15T21:55:01.870Z,12.88
2018-09-15T22:00:01.247Z,12.77
2018-09-15T22:05:01.600Z,12.7
2018-09-15T22:10:01.940Z,12.62
2018-09-15T22:15:01.223Z,12.52
2018-09-15T22:20:01.569Z,12.5
2018-09-15T22:25:01.946Z,12.41
2018-09-15T22:30:01.307Z,12.35
2018-09-15T22:35:01.768Z,12.3
2018-09-15T22:40:01.116Z,12.05
2018-09-15T22:45:01.374Z,12.11
2018-09-15T22:50:01.720Z,12.33
2018-09-15T22:55:01.133Z,12.48
2018-09-15T23:00:01.383Z,12.4
2018-09-15T23:05:01.794Z,12.32
2018-09-15T23:10:01.196Z,12.2
2018-09-15T23:15:01.511Z,12.15
2018-09-15T23:20:01.936Z,12.15
2018-09-15T23:25:01.299Z,11.96
2018-09-15T23:30:01.553Z,11.94
2018-09-15T23:35:02.016Z,11.86
2018-09-15T23:40:01.385Z,11.78
2018-09-15T23:45:01.779Z,11.75
2018-09-15T23:50:02.111Z,11.69
2018-09-15T23:55:01.550Z,11.62
